sensor_id;sensor_type;location;lat;lon;timestamp;pressure;altitude;pressure_sealevel;temperature;humidity
77321;BME280;66382;52.252;8.780;2023-07-31T00:00:45;99994.28;;;17.33;67.61
77321;BME280;66382;52.252;8.780;2023-07-31T00:03:11;99987.25;;;17.32;67.37
77321;BME280;66382;52.252;8.780;2023-07-31T00:05:36;99994.56;;;17.31;67.27
77321;BME280;66382;52.252;8.780;2023-07-31T00:08:03;99981.81;;;17.32;67.48
77321;BME280;66382;52.252;8.780;2023-07-31T00:10:29;99979.13;;;17.32;68.58
77321;BME280;66382;52.252;8.780;2023-07-31T00:12:55;99980.75;;;17.33;67.17
77321;BME280;66382;52.252;8.780;2023-07-31T00:15:20;99972.28;;;17.29;68.09
77321;BME280;66382;52.252;8.780;2023-07-31T00:17:46;99970.41;;;17.30;67.19
77321;BME280;66382;52.252;8.780;2023-07-31T00:20:12;99981.47;;;17.28;67.68
77321;BME280;66382;52.252;8.780;2023-07-31T00:22:38;99970.56;;;17.23;68.00
77321;BME280;66382;52.252;8.780;2023-07-31T00:25:05;99976.91;;;17.29;67.57
77321;BME280;66382;52.252;8.780;2023-07-31T00:27:31;99980.44;;;17.29;67.99
77321;BME280;66382;52.252;8.780;2023-07-31T00:29:56;99982.31;;;17.29;68.65
77321;BME280;66382;52.252;8.780;2023-07-31T00:32:22;99982.88;;;17.31;67.55
77321;BME280;66382;52.252;8.780;2023-07-31T00:34:48;99989.13;;;17.31;68.17
77321;BME280;66382;52.252;8.780;2023-07-31T00:37:14;99990.53;;;17.34;68.38
77321;BME280;66382;52.252;8.780;2023-07-31T00:39:40;99979.44;;;17.35;68.25
77321;BME280;66382;52.252;8.780;2023-07-31T00:42:07;99968.34;;;17.37;68.07
77321;BME280;66382;52.252;8.780;2023-07-31T00:44:33;99956.94;;;17.35;68.67
77321;BME280;66382;52.252;8.780;2023-07-31T00:46:59;99960.00;;;17.38;68.68
77321;BME280;66382;52.252;8.780;2023-07-31T00:49:25;99973.03;;;17.41;68.59
77321;BME280;66382;52.252;8.780;2023-07-31T00:51:51;99975.47;;;17.43;68.75
77321;BME280;66382;52.252;8.780;2023-07-31T00:54:17;99966.81;;;17.41;68.76
77321;BME280;66382;52.252;8.780;2023-07-31T00:56:45;99965.50;;;17.44;68.51
77321;BME280;66382;52.252;8.780;2023-07-31T00:59:12;99963.59;;;17.44;68.44
77321;BME280;66382;52.252;8.780;2023-07-31T01:01:38;99969.00;;;17.44;67.99
77321;BME280;66382;52.252;8.780;2023-07-31T01:04:04;99951.38;;;17.41;68.75
77321;BME280;66382;52.252;8.780;2023-07-31T01:06:35;99950.84;;;17.45;68.33
77321;BME280;66382;52.252;8.780;2023-07-31T01:09:04;99939.44;;;17.42;68.51
77321;BME280;66382;52.252;8.780;2023-07-31T01:11:36;99943.22;;;17.41;68.66
77321;BME280;66382;52.252;8.780;2023-07-31T01:14:04;99936.16;;;17.40;69.20
77321;BME280;66382;52.252;8.780;2023-07-31T01:16:31;99943.22;;;17.41;69.12
77321;BME280;66382;52.252;8.780;2023-07-31T01:18:57;99945.94;;;17.41;69.41
77321;BME280;66382;52.252;8.780;2023-07-31T01:21:31;99935.34;;;17.40;68.43
77321;BME280;66382;52.252;8.780;2023-07-31T01:24:20;99946.19;;;17.40;68.38
77321;BME280;66382;52.252;8.780;2023-07-31T01:26:52;99940.75;;;17.40;68.58
77321;BME280;66382;52.252;8.780;2023-07-31T01:29:25;99938.03;;;17.40;69.07
77321;BME280;66382;52.252;8.780;2023-07-31T01:31:55;99942.16;;;17.42;69.31
77321;BME280;66382;52.252;8.780;2023-07-31T01:34:22;99938.41;;;17.44;69.21
77321;BME280;66382;52.252;8.780;2023-07-31T01:36:48;99934.59;;;17.45;69.38
77321;BME280;66382;52.252;8.780;2023-07-31T01:39:13;99929.41;;;17.43;69.33
77321;BME280;66382;52.252;8.780;2023-07-31T01:41:39;99930.00;;;17.45;69.47
77321;BME280;66382;52.252;8.780;2023-07-31T01:44:06;99928.59;;;17.42;69.38
77321;BME280;66382;52.252;8.780;2023-07-31T01:46:32;99921.28;;;17.43;68.85
77321;BME280;66382;52.252;8.780;2023-07-31T01:48:58;99920.75;;;17.41;69.46
77321;BME280;66382;52.252;8.780;2023-07-31T01:51:23;99921.78;;;17.40;69.14
77321;BME280;66382;52.252;8.780;2023-07-31T01:53:49;99913.09;;;17.38;69.36
77321;BME280;66382;52.252;8.780;2023-07-31T01:56:15;99914.66;;;17.34;69.04
77321;BME280;66382;52.252;8.780;2023-07-31T01:58:41;99912.19;;;17.32;69.35
77321;BME280;66382;52.252;8.780;2023-07-31T02:01:08;99905.38;;;17.30;69.32
77321;BME280;66382;52.252;8.780;2023-07-31T02:03:33;99907.00;;;17.31;69.10
77321;BME280;66382;52.252;8.780;2023-07-31T02:05:59;99896.44;;;17.29;68.18
77321;BME280;66382;52.252;8.780;2023-07-31T02:08:25;99897.75;;;17.27;69.03
77321;BME280;66382;52.252;8.780;2023-07-31T02:10:51;99889.63;;;17.27;69.64
77321;BME280;66382;52.252;8.780;2023-07-31T02:13:17;99890.69;;;17.26;69.34
77321;BME280;66382;52.252;8.780;2023-07-31T02:15:42;99886.56;;;17.23;69.41
77321;BME280;66382;52.252;8.780;2023-07-31T02:18:09;99888.75;;;17.21;69.54
77321;BME280;66382;52.252;8.780;2023-07-31T02:20:35;99890.88;;;17.19;69.35
77321;BME280;66382;52.252;8.780;2023-07-31T02:23:01;99885.69;;;17.17;69.10
77321;BME280;66382;52.252;8.780;2023-07-31T02:25:27;99881.00;;;17.13;69.10
77321;BME280;66382;52.252;8.780;2023-07-31T02:27:52;99883.41;;;17.09;69.19
77321;BME280;66382;52.252;8.780;2023-07-31T02:30:18;99882.31;;;17.10;69.85
77321;BME280;66382;52.252;8.780;2023-07-31T02:32:44;99877.97;;;17.09;69.89
77321;BME280;66382;52.252;8.780;2023-07-31T02:35:11;99876.31;;;17.08;69.24
77321;BME280;66382;52.252;8.780;2023-07-31T02:37:36;99872.00;;;17.07;69.35
77321;BME280;66382;52.252;8.780;2023-07-31T02:40:03;99878.47;;;17.06;69.71
77321;BME280;66382;52.252;8.780;2023-07-31T02:42:28;99869.19;;;17.02;69.09
77321;BME280;66382;52.252;8.780;2023-07-31T02:44:54;99875.44;;;17.03;68.66
77321;BME280;66382;52.252;8.780;2023-07-31T02:47:20;99874.03;;;17.00;69.60
77321;BME280;66382;52.252;8.780;2023-07-31T02:49:45;99882.41;;;16.98;69.46
77321;BME280;66382;52.252;8.780;2023-07-31T02:52:12;99881.84;;;16.96;69.59
77321;BME280;66382;52.252;8.780;2023-07-31T02:54:38;99881.00;;;16.96;68.99
77321;BME280;66382;52.252;8.780;2023-07-31T02:57:04;99881.50;;;16.93;69.38
77321;BME280;66382;52.252;8.780;2023-07-31T02:59:30;99876.09;;;16.93;68.65
77321;BME280;66382;52.252;8.780;2023-07-31T03:01:56;99879.06;;;16.91;69.49
77321;BME280;66382;52.252;8.780;2023-07-31T03:04:21;99882.00;;;16.90;69.49
77321;BME280;66382;52.252;8.780;2023-07-31T03:06:47;99885.53;;;16.90;69.72
77321;BME280;66382;52.252;8.780;2023-07-31T03:09:14;99879.28;;;16.90;69.74
77321;BME280;66382;52.252;8.780;2023-07-31T03:11:40;99872.97;;;16.84;69.53
77321;BME280;66382;52.252;8.780;2023-07-31T03:14:05;99875.34;;;16.81;68.86
77321;BME280;66382;52.252;8.780;2023-07-31T03:16:31;99879.13;;;16.80;70.40
77321;BME280;66382;52.252;8.780;2023-07-31T03:18:57;99879.34;;;16.78;69.91
77321;BME280;66382;52.252;8.780;2023-07-31T03:21:23;99876.88;;;16.76;69.62
77321;BME280;66382;52.252;8.780;2023-07-31T03:23:49;99875.44;;;16.74;69.98
77321;BME280;66382;52.252;8.780;2023-07-31T03:26:16;99877.84;;;16.70;69.80
77321;BME280;66382;52.252;8.780;2023-07-31T03:28:41;99878.84;;;16.64;69.15
77321;BME280;66382;52.252;8.780;2023-07-31T03:31:07;99885.78;;;16.60;69.80
77321;BME280;66382;52.252;8.780;2023-07-31T03:33:33;99879.56;;;16.60;69.87
77321;BME280;66382;52.252;8.780;2023-07-31T03:35:59;99872.47;;;16.59;70.13
77321;BME280;66382;52.252;8.780;2023-07-31T03:38:25;99879.78;;;16.58;69.99
77321;BME280;66382;52.252;8.780;2023-07-31T03:40:50;99871.66;;;16.58;70.24
77321;BME280;66382;52.252;8.780;2023-07-31T03:43:17;99861.94;;;16.57;69.94
77321;BME280;66382;52.252;8.780;2023-07-31T03:45:43;99871.34;;;16.54;70.45
77321;BME280;66382;52.252;8.780;2023-07-31T03:48:09;99861.84;;;16.52;70.07
77321;BME280;66382;52.252;8.780;2023-07-31T03:50:34;99860.75;;;16.53;70.31
77321;BME280;66382;52.252;8.780;2023-07-31T03:53:00;99860.75;;;16.53;70.48
77321;BME280;66382;52.252;8.780;2023-07-31T03:55:26;99862.16;;;16.55;70.62
77321;BME280;66382;52.252;8.780;2023-07-31T03:57:52;99854.63;;;16.58;70.49
77321;BME280;66382;52.252;8.780;2023-07-31T04:00:19;99857.06;;;16.59;70.16
77321;BME280;66382;52.252;8.780;2023-07-31T04:02:44;99851.41;;;16.61;70.51
77321;BME280;66382;52.252;8.780;2023-07-31T04:05:10;99848.47;;;16.62;70.89
77321;BME280;66382;52.252;8.780;2023-07-31T04:07:36;99849.28;;;16.63;70.54
77321;BME280;66382;52.252;8.780;2023-07-31T04:10:03;99854.72;;;16.63;70.59
77321;BME280;66382;52.252;8.780;2023-07-31T04:12:29;99849.78;;;16.60;70.59
77321;BME280;66382;52.252;8.780;2023-07-31T04:14:54;99847.09;;;16.60;70.92
77321;BME280;66382;52.252;8.780;2023-07-31T04:17:21;99838.63;;;16.56;70.77
77321;BME280;66382;52.252;8.780;2023-07-31T04:19:47;99839.78;;;16.60;70.21
77321;BME280;66382;52.252;8.780;2023-07-31T04:22:13;99836.25;;;16.60;70.76
77321;BME280;66382;52.252;8.780;2023-07-31T04:24:39;99837.88;;;16.61;71.01
77321;BME280;66382;52.252;8.780;2023-07-31T04:27:05;99840.38;;;16.62;71.29
77321;BME280;66382;52.252;8.780;2023-07-31T04:29:30;99839.06;;;16.65;70.67
77321;BME280;66382;52.252;8.780;2023-07-31T04:31:56;99834.44;;;16.65;70.22
77321;BME280;66382;52.252;8.780;2023-07-31T04:34:23;99830.13;;;16.64;70.67
77321;BME280;66382;52.252;8.780;2023-07-31T04:36:49;99825.25;;;16.66;71.09
77321;BME280;66382;52.252;8.780;2023-07-31T04:39:15;99828.53;;;16.68;70.02
77321;BME280;66382;52.252;8.780;2023-07-31T04:41:40;99829.94;;;16.71;70.76
77321;BME280;66382;52.252;8.780;2023-07-31T04:44:06;99821.59;;;16.72;71.50
77321;BME280;66382;52.252;8.780;2023-07-31T04:46:32;99820.50;;;16.73;71.02
77321;BME280;66382;52.252;8.780;2023-07-31T04:48:57;99819.13;;;16.71;71.06
77321;BME280;66382;52.252;8.780;2023-07-31T04:51:24;99823.72;;;16.70;70.47
77321;BME280;66382;52.252;8.780;2023-07-31T04:53:50;99825.34;;;16.71;70.76
77321;BME280;66382;52.252;8.780;2023-07-31T04:56:16;99828.88;;;16.72;71.05
77321;BME280;66382;52.252;8.780;2023-07-31T04:58:41;99824.53;;;16.71;70.91
77321;BME280;66382;52.252;8.780;2023-07-31T05:01:07;99826.41;;;16.70;70.99
77321;BME280;66382;52.252;8.780;2023-07-31T05:03:33;99816.97;;;16.73;71.96
77321;BME280;66382;52.252;8.780;2023-07-31T05:05:59;99824.88;;;16.74;71.33
77321;BME280;66382;52.252;8.780;2023-07-31T05:08:26;99823.56;;;16.77;71.52
77321;BME280;66382;52.252;8.780;2023-07-31T05:10:51;99819.47;;;16.74;71.34
77321;BME280;66382;52.252;8.780;2023-07-31T05:13:17;99819.47;;;16.74;70.78
77321;BME280;66382;52.252;8.780;2023-07-31T05:15:43;99817.47;;;16.70;70.45
77321;BME280;66382;52.252;8.780;2023-07-31T05:18:09;99817.72;;;16.68;72.12
77321;BME280;66382;52.252;8.780;2023-07-31T05:20:34;99812.56;;;16.67;71.41
77321;BME280;66382;52.252;8.780;2023-07-31T05:23:00;99817.41;;;16.65;71.14
77321;BME280;66382;52.252;8.780;2023-07-31T05:25:27;99825.25;;;16.66;71.55
77321;BME280;66382;52.252;8.780;2023-07-31T05:27:53;99820.69;;;16.67;71.08
77321;BME280;66382;52.252;8.780;2023-07-31T05:30:18;99817.72;;;16.68;71.43
77321;BME280;66382;52.252;8.780;2023-07-31T05:32:44;99813.38;;;16.67;71.49
77321;BME280;66382;52.252;8.780;2023-07-31T05:35:10;99823.13;;;16.68;71.37
77321;BME280;66382;52.252;8.780;2023-07-31T05:37:36;99823.13;;;16.68;71.31
77321;BME280;66382;52.252;8.780;2023-07-31T05:40:01;99815.81;;;16.69;71.48
77321;BME280;66382;52.252;8.780;2023-07-31T05:42:29;99826.19;;;16.72;70.92
77321;BME280;66382;52.252;8.780;2023-07-31T05:44:54;99828.63;;;16.73;72.44
77321;BME280;66382;52.252;8.780;2023-07-31T05:47:20;99828.38;;;16.75;71.90
77321;BME280;66382;52.252;8.780;2023-07-31T05:49:46;99831.69;;;16.77;71.84
77321;BME280;66382;52.252;8.780;2023-07-31T05:52:11;99830.88;;;16.76;72.05
77321;BME280;66382;52.252;8.780;2023-07-31T05:54:37;99825.22;;;16.78;71.30
77321;BME280;66382;52.252;8.780;2023-07-31T05:57:03;99820.19;;;16.70;71.63
77321;BME280;66382;52.252;8.780;2023-07-31T05:59:30;99823.22;;;16.73;71.88
77321;BME280;66382;52.252;8.780;2023-07-31T06:01:56;99827.81;;;16.73;71.19
77321;BME280;66382;52.252;8.780;2023-07-31T06:04:22;99828.63;;;16.73;72.33
77321;BME280;66382;52.252;8.780;2023-07-31T06:06:47;99822.97;;;16.75;71.86
77321;BME280;66382;52.252;8.780;2023-07-31T06:09:13;99825.22;;;16.78;71.89
77321;BME280;66382;52.252;8.780;2023-07-31T06:11:39;99829.78;;;16.77;72.10
77321;BME280;66382;52.252;8.780;2023-07-31T06:14:04;99823.31;;;16.79;72.36
77321;BME280;66382;52.252;8.780;2023-07-31T06:16:31;99821.66;;;16.77;71.86
77321;BME280;66382;52.252;8.780;2023-07-31T06:18:57;99827.69;;;16.80;72.51
77321;BME280;66382;52.252;8.780;2023-07-31T06:21:23;99832.03;;;16.81;72.31
77321;BME280;66382;52.252;8.780;2023-07-31T06:23:49;99838.59;;;16.85;72.18
77321;BME280;66382;52.252;8.780;2023-07-31T06:26:14;99836.72;;;16.85;71.60
77321;BME280;66382;52.252;8.780;2023-07-31T06:28:41;99825.66;;;16.87;71.74
77321;BME280;66382;52.252;8.780;2023-07-31T06:31:07;99826.47;;;16.87;71.90
77321;BME280;66382;52.252;8.780;2023-07-31T06:33:34;99822.94;;;16.87;70.59
77321;BME280;66382;52.252;8.780;2023-07-31T06:36:00;99825.06;;;16.85;71.78
77321;BME280;66382;52.252;8.780;2023-07-31T06:38:26;99813.16;;;16.86;71.86
77321;BME280;66382;52.252;8.780;2023-07-31T06:40:52;99804.22;;;16.85;71.73
77321;BME280;66382;52.252;8.780;2023-07-31T06:43:18;99812.09;;;16.87;71.12
77321;BME280;66382;52.252;8.780;2023-07-31T06:45:44;99809.41;;;16.87;72.33
77321;BME280;66382;52.252;8.780;2023-07-31T06:48:10;99814.53;;;16.88;71.76
77321;BME280;66382;52.252;8.780;2023-07-31T06:50:37;99813.50;;;16.89;71.66
77321;BME280;66382;52.252;8.780;2023-07-31T06:53:02;99809.72;;;16.90;71.92
77321;BME280;66382;52.252;8.780;2023-07-31T06:55:28;99817.53;;;16.87;71.44
77321;BME280;66382;52.252;8.780;2023-07-31T06:57:55;99817.19;;;16.83;71.65
77321;BME280;66382;52.252;8.780;2023-07-31T07:00:22;99830.47;;;16.85;72.08
77321;BME280;66382;52.252;8.780;2023-07-31T07:02:48;99815.88;;;16.86;71.97
77321;BME280;66382;52.252;8.780;2023-07-31T07:05:14;99826.47;;;16.87;72.33
77321;BME280;66382;52.252;8.780;2023-07-31T07:07:42;99822.44;;;16.90;72.32
77321;BME280;66382;52.252;8.780;2023-07-31T07:10:09;99815.13;;;16.90;71.85
77321;BME280;66382;52.252;8.780;2023-07-31T07:12:35;99820.63;;;16.95;72.48
77321;BME280;66382;52.252;8.780;2023-07-31T07:15:01;99805.53;;;17.00;72.58
77321;BME280;66382;52.252;8.780;2023-07-31T07:17:28;99810.28;;;17.09;72.39
77321;BME280;66382;52.252;8.780;2023-07-31T07:19:54;99807.22;;;17.23;72.29
77321;BME280;66382;52.252;8.780;2023-07-31T07:22:20;99786.50;;;17.33;72.34
77321;BME280;66382;52.252;8.780;2023-07-31T07:24:47;99794.78;;;17.44;71.53
77321;BME280;66382;52.252;8.780;2023-07-31T07:27:12;99806.56;;;17.54;72.09
77321;BME280;66382;52.252;8.780;2023-07-31T07:29:38;99803.16;;;17.64;72.48
77321;BME280;66382;52.252;8.780;2023-07-31T07:32:05;99805.13;;;17.69;71.56
77321;BME280;66382;52.252;8.780;2023-07-31T07:34:30;99798.31;;;17.66;71.60
77321;BME280;66382;52.252;8.780;2023-07-31T07:36:56;99800.19;;;17.66;71.79
77321;BME280;66382;52.252;8.780;2023-07-31T07:39:22;99801.38;;;17.75;71.67
77321;BME280;66382;52.252;8.780;2023-07-31T07:41:49;99800.91;;;17.78;72.12
77321;BME280;66382;52.252;8.780;2023-07-31T07:44:15;99805.84;;;17.81;71.40
77321;BME280;66382;52.252;8.780;2023-07-31T07:46:40;99793.09;;;17.81;71.95
77321;BME280;66382;52.252;8.780;2023-07-31T07:49:06;99795.00;;;17.81;72.10
77321;BME280;66382;52.252;8.780;2023-07-31T07:51:32;99795.47;;;17.78;71.70
77321;BME280;66382;52.252;8.780;2023-07-31T07:53:58;99808.69;;;17.74;71.29
77321;BME280;66382;52.252;8.780;2023-07-31T07:56:26;99806.75;;;17.70;71.92
77321;BME280;66382;52.252;8.780;2023-07-31T07:58:53;99815.63;;;17.65;71.70
77321;BME280;66382;52.252;8.780;2023-07-31T08:01:19;99800.09;;;17.60;71.70
77321;BME280;66382;52.252;8.780;2023-07-31T08:03:45;99794.38;;;17.57;72.43
77321;BME280;66382;52.252;8.780;2023-07-31T08:06:11;99798.41;;;17.54;71.65
77321;BME280;66382;52.252;8.780;2023-07-31T08:08:37;99791.84;;;17.50;72.40
77321;BME280;66382;52.252;8.780;2023-07-31T08:11:03;99782.84;;;17.45;72.19
77321;BME280;66382;52.252;8.780;2023-07-31T08:13:29;99790.41;;;17.42;71.95
77321;BME280;66382;52.252;8.780;2023-07-31T08:15:56;99781.97;;;17.39;72.05
77321;BME280;66382;52.252;8.780;2023-07-31T08:18:22;99785.72;;;17.38;71.52
77321;BME280;66382;52.252;8.780;2023-07-31T08:20:48;99776.50;;;17.34;71.83
77321;BME280;66382;52.252;8.780;2023-07-31T08:23:13;99772.47;;;17.36;72.46
77321;BME280;66382;52.252;8.780;2023-07-31T08:25:39;99770.56;;;17.37;71.90
77321;BME280;66382;52.252;8.780;2023-07-31T08:28:06;99764.31;;;17.36;71.94
77321;BME280;66382;52.252;8.780;2023-07-31T08:30:32;99765.13;;;17.37;72.49
77321;BME280;66382;52.252;8.780;2023-07-31T08:32:59;99742.84;;;17.30;72.90
77321;BME280;66382;52.252;8.780;2023-07-31T08:35:26;99749.81;;;17.48;72.41
77321;BME280;66382;52.252;8.780;2023-07-31T08:37:52;99753.97;;;17.55;72.41
77321;BME280;66382;52.252;8.780;2023-07-31T08:40:17;99748.06;;;17.58;72.76
77321;BME280;66382;52.252;8.780;2023-07-31T08:42:44;99744.28;;;17.59;73.17
77321;BME280;66382;52.252;8.780;2023-07-31T08:45:14;99748.13;;;17.63;72.18
77321;BME280;66382;52.252;8.780;2023-07-31T08:47:40;99744.09;;;17.66;72.79
77321;BME280;66382;52.252;8.780;2023-07-31T08:50:09;99751.94;;;17.68;72.56
77321;BME280;66382;52.252;8.780;2023-07-31T08:52:36;99744.91;;;17.67;72.29
77321;BME280;66382;52.252;8.780;2023-07-31T08:55:01;99741.09;;;17.68;72.86
77321;BME280;66382;52.252;8.780;2023-07-31T08:57:27;99742.75;;;17.69;72.81
77321;BME280;66382;52.252;8.780;2023-07-31T08:59:53;99739.78;;;17.70;72.95
77321;BME280;66382;52.252;8.780;2023-07-31T09:02:19;99735.75;;;17.73;73.18
77321;BME280;66382;52.252;8.780;2023-07-31T09:04:45;99722.75;;;17.75;73.34
77321;BME280;66382;52.252;8.780;2023-07-31T09:07:14;99731.81;;;17.80;72.84
77321;BME280;66382;52.252;8.780;2023-07-31T09:09:40;99719.63;;;17.83;72.95
77321;BME280;66382;52.252;8.780;2023-07-31T09:12:07;99728.31;;;17.85;73.01
77321;BME280;66382;52.252;8.780;2023-07-31T09:14:33;99719.28;;;17.79;72.28
77321;BME280;66382;52.252;8.780;2023-07-31T09:16:59;99737.78;;;17.82;72.88
77321;BME280;66382;52.252;8.780;2023-07-31T09:19:25;99727.78;;;17.83;72.12
77321;BME280;66382;52.252;8.780;2023-07-31T09:21:51;99719.38;;;17.84;72.60
77321;BME280;66382;52.252;8.780;2023-07-31T09:24:25;99727.25;;;17.86;72.46
77321;BME280;66382;52.252;8.780;2023-07-31T09:26:53;99726.69;;;17.84;73.02
77321;BME280;66382;52.252;8.780;2023-07-31T09:29:19;99728.34;;;17.90;72.25
77321;BME280;66382;52.252;8.780;2023-07-31T09:31:45;99724.34;;;17.93;73.52
77321;BME280;66382;52.252;8.780;2023-07-31T09:34:11;99710.50;;;17.94;73.21
77321;BME280;66382;52.252;8.780;2023-07-31T09:36:41;99715.97;;;17.99;72.34
77321;BME280;66382;52.252;8.780;2023-07-31T09:39:09;99715.47;;;18.02;72.97
77321;BME280;66382;52.252;8.780;2023-07-31T09:41:37;99712.50;;;18.04;72.67
77321;BME280;66382;52.252;8.780;2023-07-31T09:44:04;99718.75;;;18.04;72.39
77321;BME280;66382;52.252;8.780;2023-07-31T09:46:30;99705.69;;;18.01;71.88
77321;BME280;66382;52.252;8.780;2023-07-31T09:49:04;99710.56;;;17.99;72.63
77321;BME280;66382;52.252;8.780;2023-07-31T09:51:30;99702.94;;;17.96;72.77
77321;BME280;66382;52.252;8.780;2023-07-31T09:53:55;99701.31;;;17.95;72.20
77321;BME280;66382;52.252;8.780;2023-07-31T09:56:21;99695.38;;;17.98;73.02
77321;BME280;66382;52.252;8.780;2023-07-31T09:58:50;99694.28;;;17.99;72.62
77321;BME280;66382;52.252;8.780;2023-07-31T10:01:16;99704.06;;;18.00;72.12
77321;BME280;66382;52.252;8.780;2023-07-31T10:03:45;99697.00;;;17.99;72.50
77321;BME280;66382;52.252;8.780;2023-07-31T10:06:11;99683.66;;;17.93;72.76
77321;BME280;66382;52.252;8.780;2023-07-31T10:08:39;99684.97;;;17.90;73.29
77321;BME280;66382;52.252;8.780;2023-07-31T10:11:06;99693.72;;;17.97;73.23
77321;BME280;66382;52.252;8.780;2023-07-31T10:13:35;99692.66;;;17.98;72.66
77321;BME280;66382;52.252;8.780;2023-07-31T10:16:03;99695.38;;;17.98;73.39
77321;BME280;66382;52.252;8.780;2023-07-31T10:18:29;99689.13;;;17.98;73.14
77321;BME280;66382;52.252;8.780;2023-07-31T10:20:56;99683.72;;;17.98;73.16
77321;BME280;66382;52.252;8.780;2023-07-31T10:23:22;99683.97;;;17.96;72.98
77321;BME280;66382;52.252;8.780;2023-07-31T10:25:49;99683.97;;;17.96;72.77
77321;BME280;66382;52.252;8.780;2023-07-31T10:28:16;99683.97;;;17.96;72.51
77321;BME280;66382;52.252;8.780;2023-07-31T10:30:42;99690.47;;;17.95;73.20
77321;BME280;66382;52.252;8.780;2023-07-31T10:33:09;99695.06;;;17.95;72.64
77321;BME280;66382;52.252;8.780;2023-07-31T10:35:36;99684.22;;;17.95;73.45
77321;BME280;66382;52.252;8.780;2023-07-31T10:38:11;99685.59;;;17.97;73.10
77321;BME280;66382;52.252;8.780;2023-07-31T10:40:38;99688.88;;;17.99;72.94
77321;BME280;66382;52.252;8.780;2023-07-31T10:43:05;99690.53;;;18.00;72.99
77321;BME280;66382;52.252;8.780;2023-07-31T10:45:32;99681.81;;;17.98;73.39
77321;BME280;66382;52.252;8.780;2023-07-31T10:47:59;99682.38;;;18.00;73.31
77321;BME280;66382;52.252;8.780;2023-07-31T10:50:27;99678.00;;;17.99;72.29
77321;BME280;66382;52.252;8.780;2023-07-31T10:52:54;99688.28;;;17.97;72.54
77321;BME280;66382;52.252;8.780;2023-07-31T10:55:26;99681.19;;;17.91;72.57
77321;BME280;66382;52.252;8.780;2023-07-31T10:57:52;99674.69;;;17.92;73.45
77321;BME280;66382;52.252;8.780;2023-07-31T11:00:22;99675.78;;;17.91;73.05
77321;BME280;66382;52.252;8.780;2023-07-31T11:03:00;99674.44;;;17.94;72.81
77321;BME280;66382;52.252;8.780;2023-07-31T11:05:50;99677.94;;;17.89;73.10
77321;BME280;66382;52.252;8.780;2023-07-31T11:08:21;99678.25;;;17.93;72.98
77321;BME280;66382;52.252;8.780;2023-07-31T11:10:48;99674.97;;;17.91;72.71
77321;BME280;66382;52.252;8.780;2023-07-31T11:13:14;99673.59;;;17.88;72.98
77321;BME280;66382;52.252;8.780;2023-07-31T11:15:40;99671.88;;;17.82;73.29
77321;BME280;66382;52.252;8.780;2023-07-31T11:18:06;99668.94;;;17.83;73.67
77321;BME280;66382;52.252;8.780;2023-07-31T11:20:33;99670.88;;;17.88;73.47
77321;BME280;66382;52.252;8.780;2023-07-31T11:23:01;99670.34;;;17.91;74.06
77321;BME280;66382;52.252;8.780;2023-07-31T11:25:29;99663.84;;;17.92;73.38
77321;BME280;66382;52.252;8.780;2023-07-31T11:27:55;99657.09;;;17.95;73.02
77321;BME280;66382;52.252;8.780;2023-07-31T11:30:20;99665.53;;;17.98;73.98
77321;BME280;66382;52.252;8.780;2023-07-31T11:32:46;99665.59;;;18.03;74.52
77321;BME280;66382;52.252;8.780;2023-07-31T11:35:12;99657.72;;;18.07;74.20
77321;BME280;66382;52.252;8.780;2023-07-31T11:37:41;99666.16;;;18.05;73.16
77321;BME280;66382;52.252;8.780;2023-07-31T11:40:10;99654.13;;;17.96;73.07
77321;BME280;66382;52.252;8.780;2023-07-31T11:42:36;99660.66;;;17.95;73.51
77321;BME280;66382;52.252;8.780;2023-07-31T11:45:03;99664.41;;;17.94;72.95
77321;BME280;66382;52.252;8.780;2023-07-31T11:47:29;99662.78;;;17.93;73.69
77321;BME280;66382;52.252;8.780;2023-07-31T11:49:55;99658.19;;;17.94;73.95
77321;BME280;66382;52.252;8.780;2023-07-31T11:52:21;99662.28;;;17.96;74.18
77321;BME280;66382;52.252;8.780;2023-07-31T11:54:47;99654.41;;;18.00;74.81
77321;BME280;66382;52.252;8.780;2023-07-31T11:57:15;99652.84;;;18.04;73.51
77321;BME280;66382;52.252;8.780;2023-07-31T11:59:41;99659.88;;;18.05;74.19
77321;BME280;66382;52.252;8.780;2023-07-31T12:02:08;99644.69;;;18.04;73.21
77321;BME280;66382;52.252;8.780;2023-07-31T12:04:34;99649.88;;;18.05;74.52
77321;BME280;66382;52.252;8.780;2023-07-31T12:07:01;99647.66;;;18.02;74.17
77321;BME280;66382;52.252;8.780;2023-07-31T12:09:26;99644.13;;;18.02;73.85
77321;BME280;66382;52.252;8.780;2023-07-31T12:11:52;99646.59;;;18.03;73.38
77321;BME280;66382;52.252;8.780;2023-07-31T12:14:24;99640.66;;;18.07;73.97
77321;BME280;66382;52.252;8.780;2023-07-31T12:16:53;99640.13;;;18.10;74.63
77321;BME280;66382;52.252;8.780;2023-07-31T12:19:19;99639.09;;;18.16;74.10
77321;BME280;66382;52.252;8.780;2023-07-31T12:21:45;99638.28;;;18.15;73.96
77321;BME280;66382;52.252;8.780;2023-07-31T12:24:11;99636.38;;;18.16;74.19
77321;BME280;66382;52.252;8.780;2023-07-31T12:26:37;99629.88;;;18.17;73.81
77321;BME280;66382;52.252;8.780;2023-07-31T12:29:07;99631.53;;;18.18;73.50
77321;BME280;66382;52.252;8.780;2023-07-31T12:31:34;99635.06;;;18.18;73.93
77321;BME280;66382;52.252;8.780;2023-07-31T12:34:00;99632.06;;;18.20;73.90
77321;BME280;66382;52.252;8.780;2023-07-31T12:36:25;99616.88;;;18.19;73.29
77321;BME280;66382;52.252;8.780;2023-07-31T12:38:52;99620.41;;;18.19;73.98
77321;BME280;66382;52.252;8.780;2023-07-31T12:41:18;99621.78;;;18.22;74.46
77321;BME280;66382;52.252;8.780;2023-07-31T12:43:44;99621.81;;;18.27;74.59
77321;BME280;66382;52.252;8.780;2023-07-31T12:46:11;99618.59;;;18.30;74.11
77321;BME280;66382;52.252;8.780;2023-07-31T12:48:39;99622.94;;;18.31;73.94
77321;BME280;66382;52.252;8.780;2023-07-31T12:51:05;99622.41;;;18.34;73.84
77321;BME280;66382;52.252;8.780;2023-07-31T12:53:31;99616.47;;;18.37;73.88
77321;BME280;66382;52.252;8.780;2023-07-31T12:55:57;99615.38;;;18.38;73.96